Time;durP1;ratioP1;P1;durP2;ratioP2;P2;SDS_P1;SDS_P2;PMS_P1;PMS_P2;Temp;Humidity;BMP_temperature;BMP_pressure;BME280_temperature;BME280_humidity;BME280_pressure;Samples;Min_cycle;Max_cycle;Signal;HPM_P1;HPM_P2
2022/09/21 00:01:27;;;;;;;;;;;20.60;99.90;;;;;;5026011;28;19926;-63
2022/09/21 00:03:56;;;;;;;;;;;20.60;99.90;;;;;;4994663;28;20389;-64
2022/09/21 00:06:25;;;;;;;;;;;20.60;99.90;;;;;;5032499;28;19936;-64
2022/09/21 00:08:52;;;;;;;;;;;20.60;99.90;;;;;;5018405;28;19932;-63
2022/09/21 00:11:23;;;;;;;;;;;20.60;99.90;;;;;;5016753;28;19929;-63
2022/09/21 00:13:52;;;;;;;;;;;20.60;99.90;;;;;;5036374;28;19947;-64
2022/09/21 00:16:20;;;;;;;;;;;20.60;99.90;;;;;;5020317;28;19929;-63
2022/09/21 00:18:47;;;;;;;;;;;20.50;99.90;;;;;;5029217;28;19936;-64
2022/09/21 00:21:15;;;;;;;;;;;20.50;99.90;;;;;;5012346;28;19929;-65
2022/09/21 00:23:43;;;;;;;;;;;20.60;99.90;;;;;;5020480;28;19936;-65
2022/09/21 00:26:11;;;;;;;;;;;20.50;99.90;;;;;;5018134;28;19924;-63
2022/09/21 00:28:39;;;;;;;;;;;20.50;99.90;;;;;;5005899;28;19936;-64
2022/09/21 00:31:09;;;;;;;;;;;20.50;99.90;;;;;;4995811;28;19933;-63
2022/09/21 00:33:37;;;;;;;;;;;20.50;99.90;;;;;;5003867;28;19932;-65
2022/09/21 00:36:06;;;;;;;;;;;20.50;99.90;;;;;;5025313;28;19925;-65
2022/09/21 00:38:33;;;;;;;;;;;20.50;99.90;;;;;;5015926;28;19936;-60
2022/09/21 00:41:01;;;;;;;;;;;20.50;99.90;;;;;;5012639;28;19922;-64
2022/09/21 00:43:28;;;;;;;;;;;20.50;99.90;;;;;;5020993;28;19933;-62
2022/09/21 00:46:09;;;;;;;;;;;20.50;99.90;;;;;;5036791;28;19936;-64
2022/09/21 00:48:36;;;;;;;;;;;20.50;99.90;;;;;;5019391;28;19932;-63
2022/09/21 00:51:05;;;;;;;;;;;20.50;99.90;;;;;;5037435;28;19925;-63
2022/09/21 00:53:35;;;;;;;;;;;20.50;99.90;;;;;;5015558;28;23149;-64
2022/09/21 00:56:04;;;;;;;;;;;20.50;99.90;;;;;;5011667;28;19936;-64
2022/09/21 00:58:37;;;;;;;;;;;20.50;99.90;;;;;;4996124;28;19929;-63
2022/09/21 01:01:04;;;;;;;;;;;20.40;99.90;;;;;;5010973;28;19930;-65
2022/09/21 01:03:32;;;;;;;;;;;20.50;99.90;;;;;;5012348;28;19928;-65
2022/09/21 01:05:59;;;;;;;;;;;20.40;99.90;;;;;;5023216;28;19929;-65
2022/09/21 01:08:27;;;;;;;;;;;20.40;99.90;;;;;;5029348;28;19929;-63
2022/09/21 01:10:54;;;;;;;;;;;20.40;99.90;;;;;;5035556;28;19936;-64
2022/09/21 01:13:54;;;;;;;;;;;20.50;99.90;;;;;;5010808;28;20034;-65
2022/09/21 01:16:29;;;;;;;;;;;20.40;99.90;;;;;;4970552;28;19925;-62
2022/09/21 01:19:14;;;;;;;;;;;20.50;99.90;;;;;;5007997;28;19932;-63
2022/09/21 01:21:51;;;;;;;;;;;20.40;99.90;;;;;;5015244;28;19933;-64
2022/09/21 01:24:24;;;;;;;;;;;20.40;99.90;;;;;;5010275;28;19949;-63
2022/09/21 01:27:09;;;;;;;;;;;20.40;99.90;;;;;;5004785;28;19929;-63
2022/09/21 01:29:40;;;;;;;;;;;20.40;99.90;;;;;;5023406;28;19928;-64
2022/09/21 01:32:16;;;;;;;;;;;20.40;99.90;;;;;;5018998;28;20056;-63
2022/09/21 01:34:53;;;;;;;;;;;20.40;99.90;;;;;;5021607;28;19929;-64
2022/09/21 01:37:23;;;;;;;;;;;20.40;99.90;;;;;;5013522;28;19929;-63
2022/09/21 01:39:54;;;;;;;;;;;20.40;99.90;;;;;;5010323;28;19973;-64
2022/09/21 01:42:22;;;;;;;;;;;20.40;99.90;;;;;;5026329;28;19932;-63
2022/09/21 01:44:49;;;;;;;;;;;20.40;99.90;;;;;;5009437;28;19929;-64
2022/09/21 01:47:17;;;;;;;;;;;20.40;99.90;;;;;;5020477;28;20414;-64
2022/09/21 01:49:46;;;;;;;;;;;20.40;99.90;;;;;;5015437;28;19929;-63
2022/09/21 01:52:28;;;;;;;;;;;20.40;99.90;;;;;;5011409;28;19925;-63
2022/09/21 01:55:17;;;;;;;;;;;20.40;99.90;;;;;;5023503;28;20304;-62
2022/09/21 01:57:53;;;;;;;;;;;20.30;99.90;;;;;;5003479;28;19925;-63
2022/09/21 02:00:21;;;;;;;;;;;20.30;99.90;;;;;;5015236;28;19925;-63
2022/09/21 02:02:57;;;;;;;;;;;20.30;99.90;;;;;;5031565;28;19940;-63
2022/09/21 02:05:27;;;;;;;;;;;20.30;99.90;;;;;;5000563;28;19953;-64
2022/09/21 02:07:54;;;;;;;;;;;20.30;99.90;;;;;;5004450;28;19933;-64
2022/09/21 02:10:23;;;;;;;;;;;20.30;99.90;;;;;;5016973;28;19925;-63
2022/09/21 02:12:57;;;;;;;;;;;20.30;99.90;;;;;;4996211;28;19921;-63
2022/09/21 02:15:28;;;;;;;;;;;20.30;99.90;;;;;;4995977;28;19952;-63
2022/09/21 02:18:06;;;;;;;;;;;20.30;99.90;;;;;;5006722;28;20416;-63
2022/09/21 02:20:50;;;;;;;;;;;20.30;99.90;;;;;;5005657;28;19932;-63
2022/09/21 02:23:27;;;;;;;;;;;20.30;99.90;;;;;;5010638;28;19932;-63
2022/09/21 02:25:57;;;;;;;;;;;20.30;99.90;;;;;;5033107;28;20039;-64
2022/09/21 02:28:37;;;;;;;;;;;20.20;99.90;;;;;;4985977;28;19922;-64
2022/09/21 02:31:14;;;;;;;;;;;20.30;99.90;;;;;;5006562;28;20598;-64
2022/09/21 02:33:54;;;;;;;;;;;20.20;99.90;;;;;;5028210;28;19939;-63
2022/09/21 02:36:43;;;;;;;;;;;20.30;99.90;;;;;;5002497;28;19925;-63
2022/09/21 02:39:18;;;;;;;;;;;20.20;99.90;;;;;;5010960;28;20388;-63
2022/09/21 02:41:51;;;;;;;;;;;20.20;99.90;;;;;;5017064;28;20309;-63
2022/09/21 02:44:22;;;;;;;;;;;20.20;99.90;;;;;;5017964;28;19929;-60
2022/09/21 02:46:54;;;;;;;;;;;20.20;99.90;;;;;;5026121;28;19929;-63
2022/09/21 02:49:28;;;;;;;;;;;20.20;99.90;;;;;;5019283;28;19941;-65
2022/09/21 02:51:57;;;;;;;;;;;20.20;99.90;;;;;;5017134;28;19930;-65
2022/09/21 02:54:25;;;;;;;;;;;20.20;99.90;;;;;;5036627;28;19930;-64
2022/09/21 02:56:53;;;;;;;;;;;20.20;99.90;;;;;;5016489;28;19933;-65
2022/09/21 02:59:22;;;;;;;;;;;20.20;99.90;;;;;;5013062;28;19930;-65
2022/09/21 03:01:50;;;;;;;;;;;20.10;99.90;;;;;;5024910;28;19932;-64
2022/09/21 03:04:17;;;;;;;;;;;20.20;99.90;;;;;;5014299;28;19929;-65
2022/09/21 03:06:44;;;;;;;;;;;20.20;99.90;;;;;;5022044;28;19925;-63
2022/09/21 03:09:11;;;;;;;;;;;20.20;99.90;;;;;;5030247;28;19924;-66
2022/09/21 03:11:41;;;;;;;;;;;20.20;99.90;;;;;;5036588;28;20383;-64
2022/09/21 03:14:08;;;;;;;;;;;20.10;99.90;;;;;;5015796;28;19930;-64
2022/09/21 03:16:35;;;;;;;;;;;20.20;99.90;;;;;;5022663;28;19924;-64
2022/09/21 03:19:04;;;;;;;;;;;20.10;99.90;;;;;;5016800;28;19929;-65
2022/09/21 03:21:31;;;;;;;;;;;20.10;99.90;;;;;;5044741;28;19925;-64
2022/09/21 03:23:58;;;;;;;;;;;20.10;99.90;;;;;;5018997;28;19933;-63
2022/09/21 03:26:25;;;;;;;;;;;20.10;99.90;;;;;;5038588;28;19926;-65
2022/09/21 03:28:55;;;;;;;;;;;20.10;99.90;;;;;;4993116;28;20392;-63
2022/09/21 03:31:22;;;;;;;;;;;20.10;99.90;;;;;;5016606;28;19936;-63
2022/09/21 03:33:49;;;;;;;;;;;20.10;99.90;;;;;;5034033;28;20328;-63
2022/09/21 03:36:17;;;;;;;;;;;20.10;99.90;;;;;;5019198;28;19932;-62
2022/09/21 03:38:44;;;;;;;;;;;20.10;99.90;;;;;;5023265;28;19933;-65
2022/09/21 03:41:13;;;;;;;;;;;20.10;99.90;;;;;;5015303;28;19933;-65
2022/09/21 03:43:40;;;;;;;;;;;20.10;99.90;;;;;;5025053;28;19932;-62
2022/09/21 03:46:07;;;;;;;;;;;20.10;99.90;;;;;;5018334;28;19929;-61
2022/09/21 03:48:34;;;;;;;;;;;20.10;99.90;;;;;;5010960;28;19936;-61
2022/09/21 03:51:01;;;;;;;;;;;20.00;99.90;;;;;;5031277;28;19937;-63
2022/09/21 03:53:29;;;;;;;;;;;20.10;99.90;;;;;;5029588;28;19928;-64
2022/09/21 03:55:56;;;;;;;;;;;20.10;99.90;;;;;;4999719;28;19952;-65
2022/09/21 03:58:23;;;;;;;;;;;20.20;99.90;;;;;;5033991;28;20304;-65
2022/09/21 04:00:51;;;;;;;;;;;20.40;99.90;;;;;;5002247;28;19933;-64
2022/09/21 04:03:18;;;;;;;;;;;20.70;99.90;;;;;;5024061;28;19933;-64
2022/09/21 04:05:46;;;;;;;;;;;20.90;99.90;;;;;;5000661;28;19936;-64
2022/09/21 04:08:13;;;;;;;;;;;21.10;99.90;;;;;;5031701;28;20369;-64
2022/09/21 04:10:41;;;;;;;;;;;21.40;99.90;;;;;;5016617;28;19932;-63
2022/09/21 04:13:08;;;;;;;;;;;21.60;99.90;;;;;;5017014;28;19925;-63
2022/09/21 04:15:35;;;;;;;;;;;21.70;99.90;;;;;;5037422;28;19924;-63
2022/09/21 04:18:04;;;;;;;;;;;21.90;99.90;;;;;;5027056;28;19936;-64
2022/09/21 04:20:31;;;;;;;;;;;21.90;99.90;;;;;;5026432;28;19932;-65
2022/09/21 04:22:58;;;;;;;;;;;22.00;99.90;;;;;;5015279;28;19939;-65
2022/09/21 04:25:26;;;;;;;;;;;22.00;99.90;;;;;;5024797;28;19937;-65
2022/09/21 04:27:54;;;;;;;;;;;22.00;99.90;;;;;;5007023;28;19933;-65
2022/09/21 04:30:21;;;;;;;;;;;21.90;99.90;;;;;;5031885;28;19925;-61
2022/09/21 04:32:48;;;;;;;;;;;21.90;99.90;;;;;;5025404;28;20321;-62
2022/09/21 04:35:15;;;;;;;;;;;21.90;99.90;;;;;;5011187;28;19929;-64
2022/09/21 04:37:43;;;;;;;;;;;21.90;99.90;;;;;;5010665;28;19937;-64
2022/09/21 04:40:10;;;;;;;;;;;21.90;99.90;;;;;;5043279;28;20384;-64
2022/09/21 04:42:37;;;;;;;;;;;21.90;99.90;;;;;;5023991;28;19933;-64
2022/09/21 04:45:04;;;;;;;;;;;21.80;99.90;;;;;;5005427;28;19929;-64
2022/09/21 04:47:32;;;;;;;;;;;21.80;99.90;;;;;;5007935;28;19928;-63
2022/09/21 04:49:59;;;;;;;;;;;21.80;99.90;;;;;;5017092;28;19936;-64
2022/09/21 04:52:26;;;;;;;;;;;21.80;99.90;;;;;;5020261;28;20294;-62
2022/09/21 04:54:53;;;;;;;;;;;21.80;99.90;;;;;;5028508;28;19934;-64
2022/09/21 04:57:21;;;;;;;;;;;21.70;99.90;;;;;;4999470;28;19925;-63
2022/09/21 04:59:48;;;;;;;;;;;21.70;99.90;;;;;;5013398;28;19929;-64
2022/09/21 05:02:15;;;;;;;;;;;21.70;99.90;;;;;;5016574;28;19952;-66
2022/09/21 05:04:42;;;;;;;;;;;21.70;99.90;;;;;;5011875;28;19930;-62
2022/09/21 05:07:16;;;;;;;;;;;21.70;99.90;;;;;;5018437;28;19932;-61
2022/09/21 05:10:01;;;;;;;;;;;21.70;99.90;;;;;;5016460;28;19932;-63
2022/09/21 05:12:29;;;;;;;;;;;21.80;99.90;;;;;;5026687;28;19928;-67
2022/09/21 05:14:57;;;;;;;;;;;21.80;99.90;;;;;;5007364;28;19928;-65
2022/09/21 05:17:24;;;;;;;;;;;21.80;99.90;;;;;;5036578;28;20301;-64
2022/09/21 05:19:52;;;;;;;;;;;21.80;99.90;;;;;;5019710;28;19928;-66
2022/09/21 05:22:21;;;;;;;;;;;21.80;99.90;;;;;;4989035;28;19936;-67
2022/09/21 05:24:48;;;;;;;;;;;21.80;99.90;;;;;;5006807;28;19933;-66
2022/09/21 05:27:15;;;;;;;;;;;21.80;99.90;;;;;;5032106;28;19929;-66
2022/09/21 05:29:42;;;;;;;;;;;21.90;99.90;;;;;;5040514;28;19929;-65
2022/09/21 05:32:20;;;;;;;;;;;21.80;99.90;;;;;;5040426;28;19920;-64
2022/09/21 05:34:50;;;;;;;;;;;21.80;99.90;;;;;;5033677;28;19929;-65
2022/09/21 05:37:23;;;;;;;;;;;21.80;99.90;;;;;;5045912;28;19935;-69
2022/09/21 05:39:50;;;;;;;;;;;21.70;99.90;;;;;;5030266;28;19929;-65
2022/09/21 05:42:17;;;;;;;;;;;21.70;99.90;;;;;;5046364;28;19929;-67
2022/09/21 05:44:46;;;;;;;;;;;21.70;99.90;;;;;;5019380;28;19925;-64
2022/09/21 05:47:25;;;;;;;;;;;21.70;99.90;;;;;;5035375;28;19937;-65
2022/09/21 05:50:10;;;;;;;;;;;21.60;99.90;;;;;;5029804;28;19990;-65
2022/09/21 05:52:43;;;;;;;;;;;21.60;99.90;;;;;;5036720;28;19929;-64
2022/09/21 05:55:24;;;;;;;;;;;20.90;98.70;;;;;;5029095;28;20032;-62
2022/09/21 05:58:00;;;;;;;;;;;20.00;99.90;;;;;;5028739;28;19926;-63
2022/09/21 06:00:32;;;;;;;;;;;20.10;99.90;;;;;;5032023;28;19928;-64
2022/09/21 06:03:22;;;;;;;;;;;20.50;99.90;;;;;;5030725;28;19929;-66
2022/09/21 06:05:49;;;;;;;;;;;20.70;99.90;;;;;;5027782;28;19929;-60
2022/09/21 06:08:17;;;;;;;;;;;20.90;99.90;;;;;;5025039;28;19936;-61
2022/09/21 06:10:44;;;;;;;;;;;20.90;99.90;;;;;;5027789;28;19936;-66
2022/09/21 06:13:11;;;;;;;;;;;21.00;99.90;;;;;;5031010;28;20634;-66
2022/09/21 06:15:39;;;;;;;;;;;21.00;99.90;;;;;;5032057;28;19936;-67
2022/09/21 06:18:06;;;;;;;;;;;21.00;99.90;;;;;;5029595;28;20423;-65
2022/09/21 06:20:34;;;;;;;;;;;21.00;99.90;;;;;;5024031;28;19925;-64
2022/09/21 06:23:05;;;;;;;;;;;21.00;99.90;;;;;;5027471;28;19929;-65
2022/09/21 06:25:32;;;;;;;;;;;21.00;99.90;;;;;;5027018;28;19929;-64
2022/09/21 06:28:10;;;;;;;;;;;20.90;99.90;;;;;;5033766;28;19929;-64
2022/09/21 06:30:39;;;;;;;;;;;21.00;99.90;;;;;;5023471;28;20325;-65
2022/09/21 06:33:06;;;;;;;;;;;20.90;99.90;;;;;;5020031;28;20389;-63
2022/09/21 06:35:34;;;;;;;;;;;20.90;99.90;;;;;;5024963;28;20241;-64
2022/09/21 06:38:03;;;;;;;;;;;21.00;99.90;;;;;;5021970;28;19929;-62
2022/09/21 06:40:31;;;;;;;;;;;21.00;99.90;;;;;;5034734;28;19928;-63
2022/09/21 06:42:58;;;;;;;;;;;21.00;99.90;;;;;;5023842;28;19929;-62
2022/09/21 06:45:26;;;;;;;;;;;20.90;99.90;;;;;;5028043;28;19928;-63
2022/09/21 06:47:53;;;;;;;;;;;20.90;99.90;;;;;;5028143;28;19933;-63
2022/09/21 06:50:20;;;;;;;;;;;20.90;99.90;;;;;;5030672;28;19940;-68
2022/09/21 06:52:48;;;;;;;;;;;20.90;99.90;;;;;;5019389;28;19934;-65
2022/09/21 06:55:15;;;;;;;;;;;20.90;99.90;;;;;;5026016;28;19925;-64
2022/09/21 06:57:42;;;;;;;;;;;20.90;99.90;;;;;;5035180;28;19925;-63
2022/09/21 07:00:10;;;;;;;;;;;20.90;99.90;;;;;;5025271;28;19929;-62
2022/09/21 07:02:41;;;;;;;;;;;20.90;99.90;;;;;;5027483;28;20397;-62
2022/09/21 07:05:08;;;;;;;;;;;20.90;99.90;;;;;;5021085;28;20436;-66
2022/09/21 07:07:35;;;;;;;;;;;20.90;99.90;;;;;;5021862;28;19929;-66
2022/09/21 07:10:02;;;;;;;;;;;20.90;99.90;;;;;;5020831;28;19929;-63
2022/09/21 07:12:34;;;;;;;;;;;20.90;99.90;;;;;;5024181;28;19929;-65
2022/09/21 07:15:01;;;;;;;;;;;20.90;99.90;;;;;;5024518;28;19928;-66
2022/09/21 07:17:35;;;;;;;;;;;20.90;99.90;;;;;;5012773;28;19928;-67
2022/09/21 07:20:06;;;;;;;;;;;20.90;99.90;;;;;;5028208;28;20411;-67
2022/09/21 07:22:34;;;;;;;;;;;20.90;99.90;;;;;;5028097;28;19932;-66
2022/09/21 07:25:02;;;;;;;;;;;20.90;99.90;;;;;;5016183;28;19941;-66
2022/09/21 07:27:30;;;;;;;;;;;20.90;99.90;;;;;;5027519;28;19928;-66
2022/09/21 07:29:57;;;;;;;;;;;20.90;99.90;;;;;;5010735;28;19929;-66
2022/09/21 07:32:27;;;;;;;;;;;20.90;99.90;;;;;;5031390;28;19929;-67
2022/09/21 07:34:55;;;;;;;;;;;20.90;99.90;;;;;;5023275;28;20377;-65
2022/09/21 07:37:23;;;;;;;;;;;20.80;99.90;;;;;;5019909;28;19937;-65
2022/09/21 07:39:51;;;;;;;;;;;20.90;99.90;;;;;;5029730;28;19936;-64
2022/09/21 07:42:20;;;;;;;;;;;20.80;99.90;;;;;;5024605;28;19925;-63
2022/09/21 07:44:47;;;;;;;;;;;20.80;99.90;;;;;;5007097;28;20514;-63
2022/09/21 07:47:14;;;;;;;;;;;20.90;99.90;;;;;;5033211;28;19929;-67
2022/09/21 07:49:41;;;;;;;;;;;20.90;99.90;;;;;;5037711;28;19932;-66
2022/09/21 07:52:08;;;;;;;;;;;20.90;99.90;;;;;;5027759;28;20403;-67
2022/09/21 07:54:37;;;;;;;;;;;20.90;99.90;;;;;;5031525;28;20591;-67
2022/09/21 07:59:50;;;;;;;;;;;20.90;99.90;;;;;;5023630;28;20380;-65
2022/09/21 08:02:17;;;;;;;;;;;21.00;99.90;;;;;;5029105;28;19933;-65
2022/09/21 08:04:44;;;;;;;;;;;21.00;99.90;;;;;;5009377;28;20509;-66
2022/09/21 08:07:12;;;;;;;;;;;21.00;99.90;;;;;;5035466;28;20452;-65
2022/09/21 08:09:39;;;;;;;;;;;20.90;99.90;;;;;;5030376;28;19940;-65
2022/09/21 08:12:07;;;;;;;;;;;20.90;99.90;;;;;;5032980;28;19929;-63
2022/09/21 08:14:35;;;;;;;;;;;20.90;99.90;;;;;;5010532;28;19929;-67
2022/09/21 08:17:03;;;;;;;;;;;20.90;99.90;;;;;;5026384;28;19929;-64
2022/09/21 08:19:30;;;;;;;;;;;20.90;99.90;;;;;;5030300;28;20381;-65
2022/09/21 08:21:57;;;;;;;;;;;20.90;99.90;;;;;;5008756;28;20428;-67
2022/09/21 08:24:25;;;;;;;;;;;20.90;99.90;;;;;;5025672;28;19929;-64
2022/09/21 08:26:54;;;;;;;;;;;20.70;99.90;;;;;;5024931;28;19929;-65
2022/09/21 08:29:22;;;;;;;;;;;20.70;99.90;;;;;;5028643;28;19933;-65
2022/09/21 08:31:49;;;;;;;;;;;20.80;99.90;;;;;;5013345;28;20404;-64
2022/09/21 08:34:16;;;;;;;;;;;20.60;99.90;;;;;;5031295;28;19953;-65
2022/09/21 08:36:43;;;;;;;;;;;20.10;99.90;;;;;;5026612;28;19929;-66
2022/09/21 08:39:10;;;;;;;;;;;19.70;99.90;;;;;;5020766;28;19948;-65
2022/09/21 08:41:51;;;;;;;;;;;19.60;99.90;;;;;;5025218;28;19972;-66
2022/09/21 08:44:26;;;;;;;;;;;19.80;99.90;;;;;;5023089;28;19948;-69
2022/09/21 08:47:05;;;;;;;;;;;20.10;99.90;;;;;;4998757;28;20001;-69
2022/09/21 08:49:34;;;;;;;;;;;20.30;99.90;;;;;;5032021;28;20389;-69
2022/09/21 08:52:03;;;;;;;;;;;20.50;99.90;;;;;;5025486;28;20297;-69
2022/09/21 08:54:35;;;;;;;;;;;20.60;99.90;;;;;;5025233;28;19925;-67
2022/09/21 08:57:02;;;;;;;;;;;20.70;99.90;;;;;;5026579;28;19937;-67
2022/09/21 08:59:32;;;;;;;;;;;20.80;99.90;;;;;;5022064;28;19929;-68
2022/09/21 09:01:59;;;;;;;;;;;20.80;99.90;;;;;;5025785;28;19930;-71
2022/09/21 09:04:34;;;;;;;;;;;20.80;99.90;;;;;;5012768;28;19936;-66
2022/09/21 09:07:01;;;;;;;;;;;20.80;99.90;;;;;;5037699;28;20401;-66
2022/09/21 09:09:28;;;;;;;;;;;20.80;99.90;;;;;;5027693;28;19960;-68
2022/09/21 09:12:33;;;;;;;;;;;20.80;99.90;;;;;;5028496;28;19929;-65
2022/09/21 09:15:18;;;;;;;;;;;20.80;99.90;;;;;;4964315;28;19926;-65
2022/09/21 09:17:48;;;;;;;;;;;20.80;99.90;;;;;;5028919;28;19936;-64
2022/09/21 09:20:20;;;;;;;;;;;20.90;99.90;;;;;;5033901;28;19948;-64
2022/09/21 09:22:51;;;;;;;;;;;20.90;99.90;;;;;;5036363;28;19932;-67
2022/09/21 09:25:20;;;;;;;;;;;20.90;99.90;;;;;;5027412;28;19943;-66
2022/09/21 09:27:51;;;;;;;;;;;20.90;99.90;;;;;;5036169;28;19936;-67
2022/09/21 09:30:20;;;;;;;;;;;20.90;99.90;;;;;;5019930;28;19964;-65
2022/09/21 09:32:56;;;;;;;;;;;20.90;99.90;;;;;;5028986;28;19929;-59
2022/09/21 09:35:23;;;;;;;;;;;20.90;99.90;;;;;;5025415;28;20300;-67
2022/09/21 09:37:53;;;;;;;;;;;20.90;99.90;;;;;;5028765;28;19936;-66
2022/09/21 09:40:28;;;;;;;;;;;20.90;99.90;;;;;;5028190;28;19932;-68
2022/09/21 09:43:07;;;;;;;;;;;20.90;99.90;;;;;;5028594;28;20004;-68
2022/09/21 09:46:00;;;;;;;;;;;20.90;99.90;;;;;;5007098;28;20313;-67
2022/09/21 09:48:46;;;;;;;;;;;20.90;99.90;;;;;;5020903;28;20461;-65
2022/09/21 09:51:19;;;;;;;;;;;20.90;99.90;;;;;;5023362;28;19937;-66
2022/09/21 09:53:47;;;;;;;;;;;20.90;99.90;;;;;;5026350;28;19929;-67
2022/09/21 09:56:15;;;;;;;;;;;20.80;99.90;;;;;;5022250;28;19929;-66
2022/09/21 09:58:47;;;;;;;;;;;20.90;99.90;;;;;;5021093;28;19933;-64
2022/09/21 10:01:32;;;;;;;;;;;20.90;99.90;;;;;;5022875;28;19929;-65
2022/09/21 10:04:12;;;;;;;;;;;20.80;99.90;;;;;;5018032;28;19933;-64
2022/09/21 10:06:39;;;;;;;;;;;20.70;99.90;;;;;;5022831;28;19936;-63
2022/09/21 10:09:23;;;;;;;;;;;20.60;99.90;;;;;;5027462;28;19929;-66
2022/09/21 10:11:50;;;;;;;;;;;20.70;99.90;;;;;;5028845;28;19940;-69
2022/09/21 10:14:20;;;;;;;;;;;20.70;99.90;;;;;;5019098;28;19944;-65
2022/09/21 10:16:48;;;;;;;;;;;20.70;99.90;;;;;;5022633;28;19936;-63
2022/09/21 10:19:17;;;;;;;;;;;20.70;99.90;;;;;;5025597;28;19932;-66
2022/09/21 10:21:45;;;;;;;;;;;20.70;99.90;;;;;;5031047;28;19983;-64
2022/09/21 10:24:22;;;;;;;;;;;20.80;99.90;;;;;;5020264;28;19929;-66
2022/09/21 10:26:53;;;;;;;;;;;20.40;99.90;;;;;;5026729;28;20380;-64
2022/09/21 10:29:24;;;;;;;;;;;20.30;99.90;;;;;;5020491;28;19937;-62
2022/09/21 10:31:59;;;;;;;;;;;20.20;99.90;;;;;;5023574;28;20145;-62
2022/09/21 10:34:29;;;;;;;;;;;20.00;99.90;;;;;;5031423;28;19929;-65
2022/09/21 10:36:57;;;;;;;;;;;20.10;99.90;;;;;;5015744;28;19929;-66
2022/09/21 10:39:26;;;;;;;;;;;20.20;99.90;;;;;;5021928;28;20005;-65
2022/09/21 10:41:56;;;;;;;;;;;20.20;99.90;;;;;;5022514;28;19936;-64
2022/09/21 10:44:25;;;;;;;;;;;20.20;99.70;;;;;;5025399;28;19948;-65
2022/09/21 10:46:53;;;;;;;;;;;20.20;99.30;;;;;;5029424;28;19929;-59
2022/09/21 10:49:26;;;;;;;;;;;20.30;99.10;;;;;;5021290;28;20400;-62
2022/09/21 10:51:56;;;;;;;;;;;20.30;98.90;;;;;;5023896;28;20534;-62
2022/09/21 10:54:26;;;;;;;;;;;20.30;99.90;;;;;;5007580;28;19929;-62
2022/09/21 10:56:54;;;;;;;;;;;20.50;99.70;;;;;;5024956;28;20316;-60
2022/09/21 10:59:26;;;;;;;;;;;20.50;99.90;;;;;;5025951;28;19936;-63
2022/09/21 11:01:54;;;;;;;;;;;20.60;99.90;;;;;;5011187;28;19929;-62
2022/09/21 11:04:22;;;;;;;;;;;20.60;99.90;;;;;;5035123;28;19925;-64
2022/09/21 11:07:06;;;;;;;;;;;20.60;99.90;;;;;;5042874;28;19936;-64
2022/09/21 11:09:38;;;;;;;;;;;20.70;99.90;;;;;;5028796;28;19940;-63
2022/09/21 11:12:05;;;;;;;;;;;20.60;99.90;;;;;;5010487;28;19948;-64
2022/09/21 11:14:52;;;;;;;;;;;20.70;99.90;;;;;;5034000;28;20003;-62
2022/09/21 11:17:25;;;;;;;;;;;20.70;99.90;;;;;;5028900;28;19933;-62
2022/09/21 11:20:16;;;;;;;;;;;20.60;99.90;;;;;;5024907;28;20695;-64
2022/09/21 11:23:01;;;;;;;;;;;20.70;99.90;;;;;;5017124;28;19929;-59
2022/09/21 11:25:51;;;;;;;;;;;20.70;99.90;;;;;;5024085;28;20110;-65
2022/09/21 11:28:27;;;;;;;;;;;20.70;99.90;;;;;;5021344;28;19926;-62
2022/09/21 11:30:54;;;;;;;;;;;20.70;99.90;;;;;;5028762;28;20730;-60
2022/09/21 11:33:30;;;;;;;;;;;20.70;99.90;;;;;;5023674;28;19925;-61
2022/09/21 11:36:10;;;;;;;;;;;20.70;99.90;;;;;;5034819;28;19929;-62
2022/09/21 11:38:53;;;;;;;;;;;20.70;99.90;;;;;;5019099;28;19925;-62
2022/09/21 11:41:20;;;;;;;;;;;20.80;99.90;;;;;;5029432;28;19929;-63
2022/09/21 11:44:06;;;;;;;;;;;20.80;99.90;;;;;;5016228;28;19929;-61
2022/09/21 11:46:52;;;;;;;;;;;20.80;99.90;;;;;;5024829;28;20579;-60
2022/09/21 11:49:38;;;;;;;;;;;20.80;99.90;;;;;;5035247;28;19940;-60
2022/09/21 11:52:20;;;;;;;;;;;20.80;99.90;;;;;;5022141;28;19929;-61
2022/09/21 11:54:57;;;;;;;;;;;20.80;99.90;;;;;;5029637;28;20039;-60
2022/09/21 11:57:36;;;;;;;;;;;20.80;99.90;;;;;;5028595;28;20320;-62
2022/09/21 12:00:04;;;;;;;;;;;20.80;99.90;;;;;;5030490;28;19925;-58
2022/09/21 12:02:50;;;;;;;;;;;20.90;99.90;;;;;;5024885;28;19933;-62
2022/09/21 12:05:51;;;;;;;;;;;20.80;99.90;;;;;;5027874;28;19932;-55
2022/09/21 12:08:42;;;;;;;;;;;20.70;99.90;;;;;;4962294;28;20304;-57
2022/09/21 12:11:12;;;;;;;;;;;20.60;99.90;;;;;;5024247;28;20305;-61
2022/09/21 12:13:39;;;;;;;;;;;20.60;99.90;;;;;;5018396;28;19933;-60
2022/09/21 12:16:14;;;;;;;;;;;20.60;99.90;;;;;;5025345;28;19925;-64
2022/09/21 12:18:46;;;;;;;;;;;20.60;99.90;;;;;;5028634;28;19935;-57
2022/09/21 12:21:32;;;;;;;;;;;20.60;99.90;;;;;;5022667;28;20007;-57
2022/09/21 12:24:04;;;;;;;;;;;20.60;99.90;;;;;;5018180;28;19933;-61
2022/09/21 12:26:40;;;;;;;;;;;20.60;99.90;;;;;;5027418;28;20636;-57
2022/09/21 12:29:16;;;;;;;;;;;20.60;99.90;;;;;;5016307;28;20348;-60
2022/09/21 12:31:57;;;;;;;;;;;20.60;99.90;;;;;;5018859;28;19929;-62
2022/09/21 12:34:29;;;;;;;;;;;20.60;99.90;;;;;;5020195;28;20002;-59
2022/09/21 12:37:14;;;;;;;;;;;20.60;99.90;;;;;;5036649;28;19932;-56
2022/09/21 12:39:52;;;;;;;;;;;20.60;99.90;;;;;;5026279;28;19940;-58
2022/09/21 12:42:25;;;;;;;;;;;20.60;99.90;;;;;;5017218;28;19933;-58
2022/09/21 12:44:55;;;;;;;;;;;20.60;99.90;;;;;;5031886;28;19928;-56
2022/09/21 12:47:31;;;;;;;;;;;20.60;99.90;;;;;;5024942;28;19929;-57
2022/09/21 12:50:12;;;;;;;;;;;20.60;99.90;;;;;;5027372;28;20507;-57
2022/09/21 12:52:39;;;;;;;;;;;20.60;99.90;;;;;;5025547;28;19929;-57
2022/09/21 12:55:29;;;;;;;;;;;20.70;99.90;;;;;;5024776;28;19946;-62
2022/09/21 12:58:17;;;;;;;;;;;20.70;99.90;;;;;;4991908;28;19929;-60
2022/09/21 13:00:47;;;;;;;;;;;20.80;99.90;;;;;;5020450;28;19927;-63
2022/09/21 13:03:28;;;;;;;;;;;20.80;99.90;;;;;;5026881;28;19933;-68
2022/09/21 13:05:55;;;;;;;;;;;20.90;99.90;;;;;;5040086;28;19931;-59
2022/09/21 13:08:24;;;;;;;;;;;20.90;99.90;;;;;;5050561;28;19936;-64
2022/09/21 13:11:00;;;;;;;;;;;21.00;99.90;;;;;;5030227;28;20420;-60
2022/09/21 13:13:32;;;;;;;;;;;21.20;99.90;;;;;;5034948;28;19925;-58
2022/09/21 13:16:00;;;;;;;;;;;21.30;99.90;;;;;;5032700;28;19933;-61
2022/09/21 13:18:31;;;;;;;;;;;21.30;99.90;;;;;;5012667;28;19932;-59
2022/09/21 13:21:19;;;;;;;;;;;21.40;99.90;;;;;;5027909;28;19929;-63
2022/09/21 13:23:57;;;;;;;;;;;21.40;99.90;;;;;;5029808;28;20333;-59
2022/09/21 13:26:32;;;;;;;;;;;21.40;99.90;;;;;;5026473;28;19936;-63
2022/09/21 13:29:02;;;;;;;;;;;21.40;99.90;;;;;;5029732;28;19933;-61
2022/09/21 13:31:39;;;;;;;;;;;21.30;99.90;;;;;;5039223;28;19933;-64
2022/09/21 13:34:19;;;;;;;;;;;21.30;99.90;;;;;;5037627;28;19929;-67
2022/09/21 13:37:05;;;;;;;;;;;21.40;99.90;;;;;;5012931;28;19937;-65
2022/09/21 13:39:32;;;;;;;;;;;21.50;99.90;;;;;;5034259;28;19933;-63
2022/09/21 13:42:20;;;;;;;;;;;21.60;99.90;;;;;;5028906;28;20259;-66
2022/09/21 13:44:50;;;;;;;;;;;21.60;99.90;;;;;;5032812;28;19937;-64
2022/09/21 13:47:26;;;;;;;;;;;21.70;99.90;;;;;;5027694;28;20385;-67
2022/09/21 13:49:53;;;;;;;;;;;21.70;99.90;;;;;;5036129;28;19929;-61
2022/09/21 13:52:30;;;;;;;;;;;21.80;99.90;;;;;;5036974;28;19929;-63
2022/09/21 13:54:59;;;;;;;;;;;21.80;99.90;;;;;;5028099;28;19992;-60
2022/09/21 13:57:33;;;;;;;;;;;21.90;99.90;;;;;;5024198;28;19930;-65
2022/09/21 14:00:12;;;;;;;;;;;21.90;99.90;;;;;;5028527;28;19980;-60
2022/09/21 14:02:39;;;;;;;;;;;22.00;99.90;;;;;;5024459;28;19933;-58
2022/09/21 14:05:18;;;;;;;;;;;21.90;99.90;;;;;;5027439;28;20416;-57
2022/09/21 14:07:45;;;;;;;;;;;22.00;99.90;;;;;;5024932;28;19932;-62
2022/09/21 14:10:17;;;;;;;;;;;22.00;99.90;;;;;;5031957;28;19929;-62
2022/09/21 14:12:45;;;;;;;;;;;22.00;99.90;;;;;;5021107;28;20000;-61
2022/09/21 14:15:14;;;;;;;;;;;22.00;99.90;;;;;;5029879;28;19929;-63
2022/09/21 14:17:42;;;;;;;;;;;22.00;99.90;;;;;;5025926;28;20360;-64
2022/09/21 14:20:29;;;;;;;;;;;22.00;99.90;;;;;;5014836;28;19940;-67
2022/09/21 14:23:10;;;;;;;;;;;21.90;99.90;;;;;;5023638;28;19936;-66
2022/09/21 14:25:49;;;;;;;;;;;21.90;99.90;;;;;;5027722;28;19936;-63
2022/09/21 14:28:18;;;;;;;;;;;21.80;99.90;;;;;;5018278;28;19993;-62
2022/09/21 14:30:52;;;;;;;;;;;21.80;99.90;;;;;;5034300;28;20381;-64
2022/09/21 14:33:24;;;;;;;;;;;21.70;99.90;;;;;;5024603;28;20393;-56
2022/09/21 14:35:51;;;;;;;;;;;21.70;99.90;;;;;;5014984;28;19925;-65
2022/09/21 14:38:27;;;;;;;;;;;21.70;99.90;;;;;;5013029;28;20695;-63
2022/09/21 14:40:57;;;;;;;;;;;21.60;99.90;;;;;;5022244;28;19933;-59
2022/09/21 14:43:33;;;;;;;;;;;21.50;99.90;;;;;;5029218;28;19929;-63
2022/09/21 14:46:19;;;;;;;;;;;21.50;99.90;;;;;;5015269;28;19936;-63